sensor_id;sensor_type;location;lat;lon;timestamp;P1;durP1;ratioP1;P2;durP2;ratioP2
65799;SDS011;52544;48.116;11.660;2023-06-05T00:01:58;12.50;;;5.20;;
65799;SDS011;52544;48.116;11.660;2023-06-05T00:04:24;10.98;;;5.65;;
65799;SDS011;52544;48.116;11.660;2023-06-05T00:06:50;9.07;;;5.35;;
65799;SDS011;52544;48.116;11.660;2023-06-05T00:09:18;7.45;;;5.07;;
65799;SDS011;52544;48.116;11.660;2023-06-05T00:11:43;7.78;;;5.35;;
65799;SDS011;52544;48.116;11.660;2023-06-05T00:14:09;8.30;;;5.18;;
65799;SDS011;52544;48.116;11.660;2023-06-05T00:16:34;19.00;;;6.25;;
65799;SDS011;52544;48.116;11.660;2023-06-05T00:19:00;11.48;;;6.03;;
65799;SDS011;52544;48.116;11.660;2023-06-05T00:21:26;7.80;;;5.60;;
65799;SDS011;52544;48.116;11.660;2023-06-05T00:23:52;8.13;;;5.65;;
65799;SDS011;52544;48.116;11.660;2023-06-05T00:26:17;9.75;;;5.63;;
65799;SDS011;52544;48.116;11.660;2023-06-05T00:28:43;12.13;;;6.10;;
65799;SDS011;52544;48.116;11.660;2023-06-05T00:31:08;10.35;;;5.90;;
65799;SDS011;52544;48.116;11.660;2023-06-05T00:33:33;13.00;;;5.85;;
65799;SDS011;52544;48.116;11.660;2023-06-05T00:35:59;9.50;;;5.53;;
65799;SDS011;52544;48.116;11.660;2023-06-05T00:38:24;8.27;;;5.97;;
65799;SDS011;52544;48.116;11.660;2023-06-05T00:40:50;11.13;;;5.82;;
65799;SDS011;52544;48.116;11.660;2023-06-05T00:43:16;11.05;;;6.10;;
65799;SDS011;52544;48.116;11.660;2023-06-05T00:45:41;9.70;;;5.75;;
65799;SDS011;52544;48.116;11.660;2023-06-05T00:48:07;10.50;;;6.40;;
65799;SDS011;52544;48.116;11.660;2023-06-05T00:50:33;9.90;;;6.40;;
65799;SDS011;52544;48.116;11.660;2023-06-05T00:53:02;10.02;;;6.07;;
65799;SDS011;52544;48.116;11.660;2023-06-05T00:55:31;11.30;;;5.97;;
65799;SDS011;52544;48.116;11.660;2023-06-05T00:57:56;12.25;;;6.32;;
65799;SDS011;52544;48.116;11.660;2023-06-05T01:00:22;10.75;;;7.07;;
65799;SDS011;52544;48.116;11.660;2023-06-05T01:02:48;9.77;;;6.40;;
65799;SDS011;52544;48.116;11.660;2023-06-05T01:05:18;11.10;;;6.75;;
65799;SDS011;52544;48.116;11.660;2023-06-05T01:07:44;10.68;;;6.72;;
65799;SDS011;52544;48.116;11.660;2023-06-05T01:10:12;11.00;;;6.90;;
65799;SDS011;52544;48.116;11.660;2023-06-05T01:15:22;15.07;;;7.18;;
65799;SDS011;52544;48.116;11.660;2023-06-05T01:17:54;11.25;;;7.53;;
65799;SDS011;52544;48.116;11.660;2023-06-05T01:20:22;17.27;;;7.15;;
65799;SDS011;52544;48.116;11.660;2023-06-05T01:22:48;13.55;;;7.30;;
65799;SDS011;52544;48.116;11.660;2023-06-05T01:25:14;15.40;;;7.95;;
65799;SDS011;52544;48.116;11.660;2023-06-05T01:30:18;10.93;;;7.35;;
65799;SDS011;52544;48.116;11.660;2023-06-05T01:32:59;10.32;;;7.07;;
65799;SDS011;52544;48.116;11.660;2023-06-05T01:35:29;11.55;;;8.18;;
65799;SDS011;52544;48.116;11.660;2023-06-05T01:37:58;12.70;;;8.57;;
65799;SDS011;52544;48.116;11.660;2023-06-05T01:40:27;11.25;;;7.82;;
65799;SDS011;52544;48.116;11.660;2023-06-05T01:42:54;12.63;;;8.18;;
65799;SDS011;52544;48.116;11.660;2023-06-05T01:45:21;14.00;;;7.88;;
65799;SDS011;52544;48.116;11.660;2023-06-05T01:47:47;13.10;;;7.80;;
65799;SDS011;52544;48.116;11.660;2023-06-05T01:50:15;11.93;;;7.97;;
65799;SDS011;52544;48.116;11.660;2023-06-05T01:52:41;13.57;;;8.30;;
65799;SDS011;52544;48.116;11.660;2023-06-05T01:55:07;16.95;;;8.50;;
65799;SDS011;52544;48.116;11.660;2023-06-05T01:57:40;12.63;;;8.38;;
65799;SDS011;52544;48.116;11.660;2023-06-05T02:00:06;12.95;;;8.20;;
65799;SDS011;52544;48.116;11.660;2023-06-05T02:02:37;14.35;;;8.68;;
65799;SDS011;52544;48.116;11.660;2023-06-05T02:05:06;16.02;;;9.15;;
65799;SDS011;52544;48.116;11.660;2023-06-05T02:07:33;13.77;;;8.60;;
65799;SDS011;52544;48.116;11.660;2023-06-05T02:09:58;13.02;;;8.35;;
65799;SDS011;52544;48.116;11.660;2023-06-05T02:12:30;18.10;;;8.73;;
65799;SDS011;52544;48.116;11.660;2023-06-05T02:14:55;14.98;;;8.73;;
65799;SDS011;52544;48.116;11.660;2023-06-05T02:17:22;19.10;;;9.43;;
65799;SDS011;52544;48.116;11.660;2023-06-05T02:19:50;14.32;;;8.88;;
65799;SDS011;52544;48.116;11.660;2023-06-05T02:22:16;13.93;;;8.43;;
65799;SDS011;52544;48.116;11.660;2023-06-05T02:24:41;13.55;;;8.90;;
65799;SDS011;52544;48.116;11.660;2023-06-05T02:27:07;15.35;;;9.32;;
65799;SDS011;52544;48.116;11.660;2023-06-05T02:29:35;16.10;;;9.25;;
65799;SDS011;52544;48.116;11.660;2023-06-05T02:32:04;15.95;;;10.05;;
65799;SDS011;52544;48.116;11.660;2023-06-05T02:34:30;14.52;;;9.15;;
65799;SDS011;52544;48.116;11.660;2023-06-05T02:36:56;14.18;;;9.32;;
65799;SDS011;52544;48.116;11.660;2023-06-05T02:39:21;14.90;;;8.82;;
65799;SDS011;52544;48.116;11.660;2023-06-05T02:41:46;15.23;;;8.98;;
65799;SDS011;52544;48.116;11.660;2023-06-05T02:44:12;14.77;;;9.63;;
65799;SDS011;52544;48.116;11.660;2023-06-05T02:46:37;13.32;;;8.43;;
65799;SDS011;52544;48.116;11.660;2023-06-05T02:49:03;15.80;;;9.35;;
65799;SDS011;52544;48.116;11.660;2023-06-05T02:51:28;13.55;;;9.35;;
65799;SDS011;52544;48.116;11.660;2023-06-05T02:53:53;12.65;;;9.00;;
65799;SDS011;52544;48.116;11.660;2023-06-05T02:56:19;14.95;;;9.23;;
65799;SDS011;52544;48.116;11.660;2023-06-05T02:58:46;16.77;;;9.45;;
65799;SDS011;52544;48.116;11.660;2023-06-05T03:01:12;17.40;;;9.88;;
65799;SDS011;52544;48.116;11.660;2023-06-05T03:03:37;13.82;;;9.65;;
65799;SDS011;52544;48.116;11.660;2023-06-05T03:06:03;12.98;;;8.93;;
65799;SDS011;52544;48.116;11.660;2023-06-05T03:08:35;17.27;;;9.52;;
65799;SDS011;52544;48.116;11.660;2023-06-05T03:11:02;18.30;;;10.05;;
65799;SDS011;52544;48.116;11.660;2023-06-05T03:13:28;12.05;;;8.50;;
65799;SDS011;52544;48.116;11.660;2023-06-05T03:15:54;14.23;;;8.65;;
65799;SDS011;52544;48.116;11.660;2023-06-05T03:18:26;16.83;;;9.20;;
65799;SDS011;52544;48.116;11.660;2023-06-05T03:20:52;14.43;;;9.73;;
65799;SDS011;52544;48.116;11.660;2023-06-05T03:23:24;21.35;;;9.70;;
65799;SDS011;52544;48.116;11.660;2023-06-05T03:25:51;18.40;;;9.32;;
65799;SDS011;52544;48.116;11.660;2023-06-05T03:28:17;16.88;;;9.63;;
65799;SDS011;52544;48.116;11.660;2023-06-05T03:30:44;18.40;;;9.90;;
65799;SDS011;52544;48.116;11.660;2023-06-05T03:33:10;17.60;;;10.38;;
65799;SDS011;52544;48.116;11.660;2023-06-05T03:35:35;18.67;;;10.02;;
65799;SDS011;52544;48.116;11.660;2023-06-05T03:38:01;19.48;;;10.65;;
65799;SDS011;52544;48.116;11.660;2023-06-05T03:40:27;18.10;;;10.68;;
65799;SDS011;52544;48.116;11.660;2023-06-05T03:42:53;16.73;;;10.40;;
65799;SDS011;52544;48.116;11.660;2023-06-05T03:45:18;18.83;;;11.70;;
65799;SDS011;52544;48.116;11.660;2023-06-05T03:47:44;21.85;;;11.85;;
65799;SDS011;52544;48.116;11.660;2023-06-05T03:50:13;18.08;;;11.30;;
65799;SDS011;52544;48.116;11.660;2023-06-05T03:52:40;20.88;;;11.57;;
65799;SDS011;52544;48.116;11.660;2023-06-05T03:55:06;17.95;;;11.25;;
65799;SDS011;52544;48.116;11.660;2023-06-05T03:57:36;19.10;;;11.15;;
65799;SDS011;52544;48.116;11.660;2023-06-05T04:00:05;23.95;;;11.48;;
65799;SDS011;52544;48.116;11.660;2023-06-05T04:02:35;15.35;;;11.02;;
65799;SDS011;52544;48.116;11.660;2023-06-05T04:05:02;22.70;;;10.70;;
65799;SDS011;52544;48.116;11.660;2023-06-05T04:07:28;17.70;;;10.77;;
65799;SDS011;52544;48.116;11.660;2023-06-05T04:09:54;19.70;;;10.90;;
65799;SDS011;52544;48.116;11.660;2023-06-05T04:12:19;18.50;;;10.55;;
65799;SDS011;52544;48.116;11.660;2023-06-05T04:14:46;16.85;;;9.80;;
65799;SDS011;52544;48.116;11.660;2023-06-05T04:17:11;14.90;;;9.95;;
65799;SDS011;52544;48.116;11.660;2023-06-05T04:19:38;17.70;;;10.43;;
65799;SDS011;52544;48.116;11.660;2023-06-05T04:22:04;17.70;;;10.55;;
65799;SDS011;52544;48.116;11.660;2023-06-05T04:24:30;15.55;;;10.15;;
65799;SDS011;52544;48.116;11.660;2023-06-05T04:26:56;17.75;;;9.23;;
65799;SDS011;52544;48.116;11.660;2023-06-05T04:29:22;15.02;;;9.43;;
65799;SDS011;52544;48.116;11.660;2023-06-05T04:31:48;14.63;;;9.75;;
65799;SDS011;52544;48.116;11.660;2023-06-05T04:34:14;13.90;;;9.57;;
65799;SDS011;52544;48.116;11.660;2023-06-05T04:36:40;17.55;;;10.07;;
65799;SDS011;52544;48.116;11.660;2023-06-05T04:39:06;17.40;;;10.10;;
65799;SDS011;52544;48.116;11.660;2023-06-05T04:41:39;19.95;;;10.90;;
65799;SDS011;52544;48.116;11.660;2023-06-05T04:44:10;14.85;;;9.77;;
65799;SDS011;52544;48.116;11.660;2023-06-05T04:46:41;17.00;;;9.90;;
65799;SDS011;52544;48.116;11.660;2023-06-05T04:49:10;18.38;;;10.13;;
65799;SDS011;52544;48.116;11.660;2023-06-05T04:51:36;17.42;;;10.15;;
65799;SDS011;52544;48.116;11.660;2023-06-05T04:54:02;14.82;;;9.85;;
65799;SDS011;52544;48.116;11.660;2023-06-05T04:56:28;18.88;;;10.00;;
65799;SDS011;52544;48.116;11.660;2023-06-05T04:58:53;13.90;;;9.63;;
65799;SDS011;52544;48.116;11.660;2023-06-05T05:01:19;18.02;;;9.27;;
65799;SDS011;52544;48.116;11.660;2023-06-05T05:03:45;18.02;;;10.05;;
65799;SDS011;52544;48.116;11.660;2023-06-05T05:06:14;16.63;;;9.75;;
65799;SDS011;52544;48.116;11.660;2023-06-05T05:08:39;21.10;;;10.35;;
65799;SDS011;52544;48.116;11.660;2023-06-05T05:11:05;22.73;;;10.18;;
65799;SDS011;52544;48.116;11.660;2023-06-05T05:13:30;20.42;;;10.10;;
65799;SDS011;52544;48.116;11.660;2023-06-05T05:15:56;15.77;;;9.82;;
65799;SDS011;52544;48.116;11.660;2023-06-05T05:18:21;13.57;;;9.63;;
65799;SDS011;52544;48.116;11.660;2023-06-05T05:20:47;17.05;;;9.55;;
65799;SDS011;52544;48.116;11.660;2023-06-05T05:23:13;20.85;;;9.85;;
65799;SDS011;52544;48.116;11.660;2023-06-05T05:25:39;15.25;;;9.45;;
65799;SDS011;52544;48.116;11.660;2023-06-05T05:28:05;16.20;;;9.18;;
65799;SDS011;52544;48.116;11.660;2023-06-05T05:30:30;14.77;;;9.13;;
65799;SDS011;52544;48.116;11.660;2023-06-05T05:32:57;19.48;;;10.27;;
65799;SDS011;52544;48.116;11.660;2023-06-05T05:35:22;18.45;;;9.63;;
65799;SDS011;52544;48.116;11.660;2023-06-05T05:37:47;14.48;;;9.15;;
65799;SDS011;52544;48.116;11.660;2023-06-05T05:40:13;15.25;;;9.75;;
65799;SDS011;52544;48.116;11.660;2023-06-05T05:42:39;13.25;;;8.85;;
65799;SDS011;52544;48.116;11.660;2023-06-05T05:45:04;15.30;;;8.70;;
65799;SDS011;52544;48.116;11.660;2023-06-05T05:47:30;14.23;;;8.93;;
65799;SDS011;52544;48.116;11.660;2023-06-05T05:49:56;17.13;;;9.48;;
65799;SDS011;52544;48.116;11.660;2023-06-05T05:52:21;18.13;;;8.98;;
65799;SDS011;52544;48.116;11.660;2023-06-05T05:54:47;18.63;;;9.70;;
65799;SDS011;52544;48.116;11.660;2023-06-05T05:57:13;18.13;;;9.20;;
65799;SDS011;52544;48.116;11.660;2023-06-05T05:59:39;14.18;;;8.60;;
65799;SDS011;52544;48.116;11.660;2023-06-05T06:02:07;13.73;;;9.07;;
65799;SDS011;52544;48.116;11.660;2023-06-05T06:04:34;14.52;;;8.85;;
65799;SDS011;52544;48.116;11.660;2023-06-05T06:07:00;14.52;;;8.70;;
65799;SDS011;52544;48.116;11.660;2023-06-05T06:09:26;17.50;;;9.10;;
65799;SDS011;52544;48.116;11.660;2023-06-05T06:11:51;15.57;;;9.63;;
65799;SDS011;52544;48.116;11.660;2023-06-05T06:14:21;19.02;;;9.27;;
65799;SDS011;52544;48.116;11.660;2023-06-05T06:16:47;16.75;;;8.52;;
65799;SDS011;52544;48.116;11.660;2023-06-05T06:19:13;15.57;;;9.75;;
65799;SDS011;52544;48.116;11.660;2023-06-05T06:21:39;16.10;;;9.50;;
65799;SDS011;52544;48.116;11.660;2023-06-05T06:24:05;20.50;;;9.20;;
65799;SDS011;52544;48.116;11.660;2023-06-05T06:26:31;18.38;;;8.40;;
65799;SDS011;52544;48.116;11.660;2023-06-05T06:28:56;14.93;;;8.25;;
65799;SDS011;52544;48.116;11.660;2023-06-05T06:31:24;19.38;;;8.90;;
65799;SDS011;52544;48.116;11.660;2023-06-05T06:33:50;20.38;;;8.95;;
65799;SDS011;52544;48.116;11.660;2023-06-05T06:36:15;16.48;;;8.30;;
65799;SDS011;52544;48.116;11.660;2023-06-05T06:38:43;14.15;;;8.35;;
65799;SDS011;52544;48.116;11.660;2023-06-05T06:41:08;13.30;;;9.05;;
65799;SDS011;52544;48.116;11.660;2023-06-05T06:43:34;22.30;;;8.38;;
65799;SDS011;52544;48.116;11.660;2023-06-05T06:46:00;14.73;;;8.10;;
65799;SDS011;52544;48.116;11.660;2023-06-05T06:48:25;15.13;;;9.48;;
65799;SDS011;52544;48.116;11.660;2023-06-05T06:50:51;13.52;;;8.20;;
65799;SDS011;52544;48.116;11.660;2023-06-05T06:53:17;16.33;;;8.32;;
65799;SDS011;52544;48.116;11.660;2023-06-05T06:55:43;17.20;;;7.90;;
65799;SDS011;52544;48.116;11.660;2023-06-05T06:58:09;14.95;;;8.65;;
65799;SDS011;52544;48.116;11.660;2023-06-05T07:00:34;12.52;;;7.80;;
65799;SDS011;52544;48.116;11.660;2023-06-05T07:03:01;15.43;;;8.23;;
65799;SDS011;52544;48.116;11.660;2023-06-05T07:05:26;14.55;;;9.10;;
65799;SDS011;52544;48.116;11.660;2023-06-05T07:07:52;15.48;;;8.38;;
65799;SDS011;52544;48.116;11.660;2023-06-05T07:10:17;15.82;;;8.57;;
65799;SDS011;52544;48.116;11.660;2023-06-05T07:12:43;15.38;;;8.45;;
65799;SDS011;52544;48.116;11.660;2023-06-05T07:15:08;17.05;;;8.68;;
65799;SDS011;52544;48.116;11.660;2023-06-05T07:17:34;13.75;;;9.10;;
65799;SDS011;52544;48.116;11.660;2023-06-05T07:19:59;17.73;;;8.25;;
65799;SDS011;52544;48.116;11.660;2023-06-05T07:22:25;13.18;;;9.35;;
65799;SDS011;52544;48.116;11.660;2023-06-05T07:24:55;15.40;;;8.70;;
65799;SDS011;52544;48.116;11.660;2023-06-05T07:27:21;13.57;;;9.18;;
65799;SDS011;52544;48.116;11.660;2023-06-05T07:29:46;20.60;;;9.60;;
65799;SDS011;52544;48.116;11.660;2023-06-05T07:32:12;14.30;;;7.80;;
65799;SDS011;52544;48.116;11.660;2023-06-05T07:34:38;10.52;;;6.78;;
65799;SDS011;52544;48.116;11.660;2023-06-05T07:37:03;13.25;;;9.35;;
65799;SDS011;52544;48.116;11.660;2023-06-05T07:39:29;13.32;;;7.93;;
65799;SDS011;52544;48.116;11.660;2023-06-05T07:41:55;16.80;;;8.02;;
65799;SDS011;52544;48.116;11.660;2023-06-05T07:44:21;13.50;;;8.40;;
65799;SDS011;52544;48.116;11.660;2023-06-05T07:46:47;11.95;;;7.85;;
65799;SDS011;52544;48.116;11.660;2023-06-05T07:49:13;15.05;;;7.90;;
65799;SDS011;52544;48.116;11.660;2023-06-05T07:51:40;14.25;;;8.02;;
65799;SDS011;52544;48.116;11.660;2023-06-05T07:54:11;10.38;;;8.07;;
65799;SDS011;52544;48.116;11.660;2023-06-05T07:56:37;12.35;;;7.97;;
65799;SDS011;52544;48.116;11.660;2023-06-05T07:59:03;15.95;;;8.65;;
65799;SDS011;52544;48.116;11.660;2023-06-05T08:01:29;11.40;;;7.32;;
65799;SDS011;52544;48.116;11.660;2023-06-05T08:03:56;12.15;;;7.55;;
65799;SDS011;52544;48.116;11.660;2023-06-05T08:06:23;12.80;;;7.57;;
65799;SDS011;52544;48.116;11.660;2023-06-05T08:08:49;12.00;;;7.60;;
65799;SDS011;52544;48.116;11.660;2023-06-05T08:11:15;11.07;;;7.40;;
65799;SDS011;52544;48.116;11.660;2023-06-05T08:13:40;12.07;;;7.28;;
65799;SDS011;52544;48.116;11.660;2023-06-05T08:16:06;9.65;;;7.15;;
65799;SDS011;52544;48.116;11.660;2023-06-05T08:18:31;11.93;;;6.80;;
65799;SDS011;52544;48.116;11.660;2023-06-05T08:20:57;10.52;;;7.05;;
65799;SDS011;52544;48.116;11.660;2023-06-05T08:23:23;9.95;;;6.55;;
65799;SDS011;52544;48.116;11.660;2023-06-05T08:25:48;10.75;;;6.72;;
65799;SDS011;52544;48.116;11.660;2023-06-05T08:28:14;12.50;;;6.70;;
65799;SDS011;52544;48.116;11.660;2023-06-05T08:30:40;13.38;;;6.43;;
65799;SDS011;52544;48.116;11.660;2023-06-05T08:33:06;13.80;;;6.70;;
65799;SDS011;52544;48.116;11.660;2023-06-05T08:35:32;10.35;;;6.05;;
65799;SDS011;52544;48.116;11.660;2023-06-05T08:37:57;11.55;;;6.65;;
65799;SDS011;52544;48.116;11.660;2023-06-05T08:40:23;9.80;;;6.22;;
65799;SDS011;52544;48.116;11.660;2023-06-05T08:42:53;9.70;;;6.72;;
65799;SDS011;52544;48.116;11.660;2023-06-05T08:45:19;16.10;;;7.43;;
65799;SDS011;52544;48.116;11.660;2023-06-05T08:47:44;11.98;;;6.75;;
65799;SDS011;52544;48.116;11.660;2023-06-05T08:50:15;12.30;;;6.80;;
65799;SDS011;52544;48.116;11.660;2023-06-05T08:52:41;10.40;;;6.00;;
65799;SDS011;52544;48.116;11.660;2023-06-05T08:55:07;21.63;;;7.68;;
65799;SDS011;52544;48.116;11.660;2023-06-05T08:57:34;13.13;;;6.78;;
65799;SDS011;52544;48.116;11.660;2023-06-05T09:00:03;23.92;;;7.82;;
65799;SDS011;52544;48.116;11.660;2023-06-05T09:02:33;12.63;;;7.65;;
65799;SDS011;52544;48.116;11.660;2023-06-05T09:04:58;11.02;;;6.90;;
65799;SDS011;52544;48.116;11.660;2023-06-05T09:07:27;13.23;;;7.35;;
65799;SDS011;52544;48.116;11.660;2023-06-05T09:09:54;11.02;;;7.50;;
65799;SDS011;52544;48.116;11.660;2023-06-05T09:12:19;27.23;;;8.60;;
65799;SDS011;52544;48.116;11.660;2023-06-05T09:14:45;10.75;;;6.85;;
65799;SDS011;52544;48.116;11.660;2023-06-05T09:17:13;16.05;;;7.35;;
65799;SDS011;52544;48.116;11.660;2023-06-05T09:19:40;12.48;;;7.45;;
65799;SDS011;52544;48.116;11.660;2023-06-05T09:22:08;10.57;;;7.28;;
65799;SDS011;52544;48.116;11.660;2023-06-05T09:24:35;19.73;;;7.10;;
65799;SDS011;52544;48.116;11.660;2023-06-05T09:29:34;17.75;;;6.75;;
65799;SDS011;52544;48.116;11.660;2023-06-05T09:32:25;14.27;;;6.60;;
65799;SDS011;52544;48.116;11.660;2023-06-05T09:34:54;11.27;;;7.10;;
65799;SDS011;52544;48.116;11.660;2023-06-05T09:37:32;9.02;;;6.20;;
65799;SDS011;52544;48.116;11.660;2023-06-05T09:40:01;13.52;;;6.47;;
65799;SDS011;52544;48.116;11.660;2023-06-05T09:42:33;8.98;;;6.20;;
65799;SDS011;52544;48.116;11.660;2023-06-05T09:45:00;11.23;;;6.38;;
65799;SDS011;52544;48.116;11.660;2023-06-05T09:47:26;9.93;;;6.38;;
65799;SDS011;52544;48.116;11.660;2023-06-05T09:49:52;8.95;;;6.35;;
65799;SDS011;52544;48.116;11.660;2023-06-05T09:52:17;8.52;;;6.20;;
65799;SDS011;52544;48.116;11.660;2023-06-05T09:54:44;7.88;;;5.88;;
65799;SDS011;52544;48.116;11.660;2023-06-05T09:57:10;8.77;;;5.40;;
65799;SDS011;52544;48.116;11.660;2023-06-05T09:59:44;10.70;;;6.80;;
65799;SDS011;52544;48.116;11.660;2023-06-05T10:02:12;8.70;;;6.28;;
65799;SDS011;52544;48.116;11.660;2023-06-05T10:07:26;8.63;;;6.13;;
65799;SDS011;52544;48.116;11.660;2023-06-05T10:09:52;9.50;;;6.20;;
65799;SDS011;52544;48.116;11.660;2023-06-05T10:12:19;17.35;;;6.43;;
65799;SDS011;52544;48.116;11.660;2023-06-05T10:14:45;13.43;;;6.15;;
65799;SDS011;52544;48.116;11.660;2023-06-05T10:17:12;9.98;;;6.32;;
65799;SDS011;52544;48.116;11.660;2023-06-05T10:19:44;11.70;;;6.60;;
65799;SDS011;52544;48.116;11.660;2023-06-05T10:22:13;9.55;;;6.35;;
65799;SDS011;52544;48.116;11.660;2023-06-05T10:24:41;8.73;;;5.97;;
65799;SDS011;52544;48.116;11.660;2023-06-05T10:29:54;8.77;;;5.93;;
65799;SDS011;52544;48.116;11.660;2023-06-05T10:35:08;9.35;;;6.18;;
65799;SDS011;52544;48.116;11.660;2023-06-05T10:40:01;9.50;;;5.80;;
65799;SDS011;52544;48.116;11.660;2023-06-05T10:42:29;14.52;;;6.55;;
65799;SDS011;52544;48.116;11.660;2023-06-05T10:44:54;9.85;;;6.47;;
65799;SDS011;52544;48.116;11.660;2023-06-05T10:52:45;8.57;;;6.45;;
65799;SDS011;52544;48.116;11.660;2023-06-05T10:55:11;9.55;;;5.85;;
65799;SDS011;52544;48.116;11.660;2023-06-05T11:00:26;7.90;;;5.78;;
65799;SDS011;52544;48.116;11.660;2023-06-05T11:02:58;7.63;;;5.75;;
65799;SDS011;52544;48.116;11.660;2023-06-05T11:05:25;10.90;;;5.63;;
65799;SDS011;52544;48.116;11.660;2023-06-05T11:10:41;8.27;;;5.05;;
65799;SDS011;52544;48.116;11.660;2023-06-05T11:16:40;8.48;;;5.28;;
65799;SDS011;52544;48.116;11.660;2023-06-05T11:24:34;8.32;;;5.38;;
65799;SDS011;52544;48.116;11.660;2023-06-05T11:27:03;8.57;;;5.45;;
65799;SDS011;52544;48.116;11.660;2023-06-05T11:29:30;7.55;;;5.32;;
65799;SDS011;52544;48.116;11.660;2023-06-05T11:31:57;8.43;;;5.80;;
65799;SDS011;52544;48.116;11.660;2023-06-05T11:34:23;10.13;;;5.93;;
65799;SDS011;52544;48.116;11.660;2023-06-05T11:36:48;6.97;;;5.18;;
65799;SDS011;52544;48.116;11.660;2023-06-05T11:39:14;7.53;;;5.30;;
65799;SDS011;52544;48.116;11.660;2023-06-05T11:41:43;8.45;;;5.40;;
65799;SDS011;52544;48.116;11.660;2023-06-05T11:44:10;8.25;;;6.03;;
65799;SDS011;52544;48.116;11.660;2023-06-05T11:46:37;7.93;;;4.97;;
65799;SDS011;52544;48.116;11.660;2023-06-05T11:49:03;7.57;;;5.55;;
65799;SDS011;52544;48.116;11.660;2023-06-05T11:51:35;9.75;;;5.90;;
65799;SDS011;52544;48.116;11.660;2023-06-05T11:54:02;11.13;;;5.10;;
65799;SDS011;52544;48.116;11.660;2023-06-05T11:56:27;9.70;;;5.40;;
65799;SDS011;52544;48.116;11.660;2023-06-05T11:58:54;6.70;;;5.22;;
65799;SDS011;52544;48.116;11.660;2023-06-05T12:01:20;12.45;;;5.90;;
65799;SDS011;52544;48.116;11.660;2023-06-05T12:04:03;9.57;;;5.35;;
65799;SDS011;52544;48.116;11.660;2023-06-05T12:06:31;17.50;;;5.70;;
65799;SDS011;52544;48.116;11.660;2023-06-05T12:09:06;8.90;;;5.50;;
65799;SDS011;52544;48.116;11.660;2023-06-05T12:11:36;8.63;;;5.82;;
65799;SDS011;52544;48.116;11.660;2023-06-05T12:14:03;9.40;;;5.07;;
65799;SDS011;52544;48.116;11.660;2023-06-05T12:16:32;8.20;;;5.60;;
65799;SDS011;52544;48.116;11.660;2023-06-05T12:18:59;8.02;;;5.43;;
65799;SDS011;52544;48.116;11.660;2023-06-05T12:21:27;11.35;;;5.85;;
65799;SDS011;52544;48.116;11.660;2023-06-05T12:24:03;6.57;;;5.00;;
65799;SDS011;52544;48.116;11.660;2023-06-05T12:26:30;9.60;;;5.60;;
65799;SDS011;52544;48.116;11.660;2023-06-05T12:29:13;10.10;;;5.05;;
65799;SDS011;52544;48.116;11.660;2023-06-05T12:31:38;7.05;;;4.97;;
65799;SDS011;52544;48.116;11.660;2023-06-05T12:34:05;8.88;;;5.65;;
65799;SDS011;52544;48.116;11.660;2023-06-05T12:36:31;8.52;;;5.07;;
65799;SDS011;52544;48.116;11.660;2023-06-05T12:39:03;9.38;;;4.90;;
65799;SDS011;52544;48.116;11.660;2023-06-05T12:41:32;8.77;;;5.22;;
65799;SDS011;52544;48.116;11.660;2023-06-05T12:44:02;13.27;;;4.82;;
65799;SDS011;52544;48.116;11.660;2023-06-05T12:46:32;6.45;;;4.85;;
65799;SDS011;52544;48.116;11.660;2023-06-05T12:49:02;11.10;;;4.97;;
65799;SDS011;52544;48.116;11.660;2023-06-05T12:51:28;5.82;;;4.55;;
65799;SDS011;52544;48.116;11.660;2023-06-05T12:53:55;9.07;;;4.95;;
65799;SDS011;52544;48.116;11.660;2023-06-05T12:56:24;8.77;;;5.07;;
65799;SDS011;52544;48.116;11.660;2023-06-05T12:58:55;6.25;;;4.53;;
65799;SDS011;52544;48.116;11.660;2023-06-05T13:01:22;5.88;;;4.40;;
65799;SDS011;52544;48.116;11.660;2023-06-05T13:03:49;9.50;;;4.60;;
65799;SDS011;52544;48.116;11.660;2023-06-05T13:06:15;7.15;;;4.22;;
65799;SDS011;52544;48.116;11.660;2023-06-05T13:08:41;7.18;;;4.80;;
65799;SDS011;52544;48.116;11.660;2023-06-05T13:11:06;7.45;;;4.30;;
65799;SDS011;52544;48.116;11.660;2023-06-05T13:13:31;9.38;;;4.63;;
65799;SDS011;52544;48.116;11.660;2023-06-05T13:15:58;9.60;;;5.05;;
65799;SDS011;52544;48.116;11.660;2023-06-05T13:18:24;7.65;;;4.70;;
65799;SDS011;52544;48.116;11.660;2023-06-05T13:20:49;8.85;;;4.60;;
65799;SDS011;52544;48.116;11.660;2023-06-05T13:23:15;9.05;;;4.93;;
65799;SDS011;52544;48.116;11.660;2023-06-05T13:25:40;6.70;;;4.68;;
65799;SDS011;52544;48.116;11.660;2023-06-05T13:28:06;6.18;;;4.50;;
65799;SDS011;52544;48.116;11.660;2023-06-05T13:30:32;6.13;;;4.65;;
65799;SDS011;52544;48.116;11.660;2023-06-05T13:32:57;6.00;;;4.53;;
65799;SDS011;52544;48.116;11.660;2023-06-05T13:35:23;6.75;;;4.03;;
65799;SDS011;52544;48.116;11.660;2023-06-05T13:37:48;6.50;;;4.20;;
65799;SDS011;52544;48.116;11.660;2023-06-05T13:40:15;5.95;;;3.72;;
65799;SDS011;52544;48.116;11.660;2023-06-05T13:42:41;8.63;;;4.10;;
65799;SDS011;52544;48.116;11.660;2023-06-05T13:45:07;5.82;;;4.55;;
65799;SDS011;52544;48.116;11.660;2023-06-05T13:47:33;7.15;;;3.78;;
65799;SDS011;52544;48.116;11.660;2023-06-05T13:49:58;10.20;;;4.13;;
65799;SDS011;52544;48.116;11.660;2023-06-05T13:52:24;6.47;;;3.90;;
65799;SDS011;52544;48.116;11.660;2023-06-05T13:54:50;6.15;;;4.10;;
65799;SDS011;52544;48.116;11.660;2023-06-05T13:57:15;6.85;;;3.67;;
65799;SDS011;52544;48.116;11.660;2023-06-05T13:59:42;9.60;;;3.72;;
65799;SDS011;52544;48.116;11.660;2023-06-05T14:02:09;6.57;;;4.35;;
65799;SDS011;52544;48.116;11.660;2023-06-05T14:04:35;5.85;;;3.70;;
65799;SDS011;52544;48.116;11.660;2023-06-05T14:07:01;6.13;;;3.90;;
65799;SDS011;52544;48.116;11.660;2023-06-05T14:09:27;5.28;;;3.75;;
65799;SDS011;52544;48.116;11.660;2023-06-05T14:11:52;4.95;;;3.95;;
65799;SDS011;52544;48.116;11.660;2023-06-05T14:14:18;5.07;;;3.95;;
65799;SDS011;52544;48.116;11.660;2023-06-05T14:16:44;5.65;;;4.07;;
65799;SDS011;52544;48.116;11.660;2023-06-05T14:19:09;10.30;;;3.80;;
65799;SDS011;52544;48.116;11.660;2023-06-05T14:21:35;6.93;;;4.30;;
65799;SDS011;52544;48.116;11.660;2023-06-05T14:24:00;4.80;;;4.10;;
65799;SDS011;52544;48.116;11.660;2023-06-05T14:26:26;6.63;;;3.97;;
65799;SDS011;52544;48.116;11.660;2023-06-05T14:28:52;6.40;;;3.90;;
65799;SDS011;52544;48.116;11.660;2023-06-05T14:31:17;8.50;;;4.28;;
65799;SDS011;52544;48.116;11.660;2023-06-05T14:33:42;6.50;;;4.22;;
65799;SDS011;52544;48.116;11.660;2023-06-05T14:36:08;5.13;;;3.97;;
65799;SDS011;52544;48.116;11.660;2023-06-05T14:38:33;5.05;;;4.00;;
65799;SDS011;52544;48.116;11.660;2023-06-05T14:40:59;11.52;;;4.72;;
65799;SDS011;52544;48.116;11.660;2023-06-05T14:43:24;8.52;;;4.78;;
65799;SDS011;52544;48.116;11.660;2023-06-05T14:45:51;7.90;;;4.60;;
65799;SDS011;52544;48.116;11.660;2023-06-05T14:48:16;8.95;;;4.78;;
65799;SDS011;52544;48.116;11.660;2023-06-05T14:50:42;4.78;;;4.15;;
65799;SDS011;52544;48.116;11.660;2023-06-05T14:53:07;8.38;;;4.63;;
65799;SDS011;52544;48.116;11.660;2023-06-05T14:55:32;6.30;;;4.80;;
65799;SDS011;52544;48.116;11.660;2023-06-05T14:57:58;10.13;;;4.45;;
65799;SDS011;52544;48.116;11.660;2023-06-05T15:00:23;9.85;;;4.72;;